sensor_id;sensor_type;location;lat;lon;timestamp;P1;durP1;ratioP1;P2;durP2;ratioP2
22656;SDS011;11495;55.610;12.100;2022-07-05T00:00:39;1125.68;;;969.25;;
22656;SDS011;11495;55.610;12.100;2022-07-05T00:03:05;1137.88;;;958.67;;
22656;SDS011;11495;55.610;12.100;2022-07-05T00:05:31;1037.05;;;909.47;;
22656;SDS011;11495;55.610;12.100;2022-07-05T00:07:56;1047.75;;;916.42;;
22656;SDS011;11495;55.610;12.100;2022-07-05T00:10:22;953.47;;;833.20;;
22656;SDS011;11495;55.610;12.100;2022-07-05T00:12:47;944.80;;;841.10;;
22656;SDS011;11495;55.610;12.100;2022-07-05T00:15:12;953.80;;;850.62;;
22656;SDS011;11495;55.610;12.100;2022-07-05T00:17:38;861.67;;;771.30;;
22656;SDS011;11495;55.610;12.100;2022-07-05T00:20:03;844.42;;;756.40;;
22656;SDS011;11495;55.610;12.100;2022-07-05T00:22:29;828.45;;;742.92;;
22656;SDS011;11495;55.610;12.100;2022-07-05T00:24:55;812.70;;;728.58;;
22656;SDS011;11495;55.610;12.100;2022-07-05T00:27:20;790.17;;;709.13;;
22656;SDS011;11495;55.610;12.100;2022-07-05T00:29:46;844.10;;;757.58;;
22656;SDS011;11495;55.610;12.100;2022-07-05T00:32:11;860.92;;;769.72;;
22656;SDS011;11495;55.610;12.100;2022-07-05T00:34:37;894.72;;;800.65;;
22656;SDS011;11495;55.610;12.100;2022-07-05T00:37:03;929.92;;;833.45;;
22656;SDS011;11495;55.610;12.100;2022-07-05T00:39:28;920.83;;;824.30;;
22656;SDS011;11495;55.610;12.100;2022-07-05T00:41:53;874.00;;;782.88;;
22656;SDS011;11495;55.610;12.100;2022-07-05T00:44:27;856.97;;;770.25;;
22656;SDS011;11495;55.610;12.100;2022-07-05T00:46:55;819.58;;;737.28;;
22656;SDS011;11495;55.610;12.100;2022-07-05T00:49:21;879.08;;;789.95;;
22656;SDS011;11495;55.610;12.100;2022-07-05T00:51:46;853.10;;;768.42;;
22656;SDS011;11495;55.610;12.100;2022-07-05T00:54:12;820.75;;;740.00;;
22656;SDS011;11495;55.610;12.100;2022-07-05T00:56:37;801.95;;;724.50;;
22656;SDS011;11495;55.610;12.100;2022-07-05T00:59:03;884.45;;;792.80;;
22656;SDS011;11495;55.610;12.100;2022-07-05T01:01:28;978.55;;;871.22;;
22656;SDS011;11495;55.610;12.100;2022-07-05T01:03:53;1069.13;;;939.92;;
22656;SDS011;11495;55.610;12.100;2022-07-05T01:06:19;987.63;;;882.38;;
22656;SDS011;11495;55.610;12.100;2022-07-05T01:08:44;1004.78;;;896.75;;
22656;SDS011;11495;55.610;12.100;2022-07-05T01:11:12;1053.45;;;941.35;;
22656;SDS011;11495;55.610;12.100;2022-07-05T01:13:38;1079.68;;;954.08;;
22656;SDS011;11495;55.610;12.100;2022-07-05T01:16:04;1083.30;;;966.85;;
22656;SDS011;11495;55.610;12.100;2022-07-05T01:18:30;1124.75;;;996.17;;
22656;SDS011;11495;55.610;12.100;2022-07-05T01:20:57;1117.45;;;984.08;;
22656;SDS011;11495;55.610;12.100;2022-07-05T01:23:23;1169.13;;;994.40;;
22656;SDS011;11495;55.610;12.100;2022-07-05T01:25:52;1156.90;;;983.83;;
22656;SDS011;11495;55.610;12.100;2022-07-05T01:28:19;1314.18;;;999.90;;
22656;SDS011;11495;55.610;12.100;2022-07-05T01:30:45;1226.45;;;999.90;;
22656;SDS011;11495;55.610;12.100;2022-07-05T01:33:13;1236.35;;;999.90;;
22656;SDS011;11495;55.610;12.100;2022-07-05T01:35:39;1246.95;;;999.90;;
22656;SDS011;11495;55.610;12.100;2022-07-05T01:38:04;1243.45;;;999.90;;
22656;SDS011;11495;55.610;12.100;2022-07-05T01:40:30;1242.22;;;999.90;;
22656;SDS011;11495;55.610;12.100;2022-07-05T01:42:56;1226.35;;;999.90;;
22656;SDS011;11495;55.610;12.100;2022-07-05T01:45:22;1307.28;;;999.90;;
22656;SDS011;11495;55.610;12.100;2022-07-05T01:48:08;1241.50;;;999.90;;
22656;SDS011;11495;55.610;12.100;2022-07-05T01:50:37;1355.40;;;999.90;;
22656;SDS011;11495;55.610;12.100;2022-07-05T01:53:06;1338.15;;;999.90;;
22656;SDS011;11495;55.610;12.100;2022-07-05T01:55:35;1394.03;;;999.90;;
22656;SDS011;11495;55.610;12.100;2022-07-05T01:58:01;1312.15;;;999.90;;
22656;SDS011;11495;55.610;12.100;2022-07-05T02:00:26;1396.90;;;999.90;;
22656;SDS011;11495;55.610;12.100;2022-07-05T02:02:52;1494.88;;;999.90;;
22656;SDS011;11495;55.610;12.100;2022-07-05T02:05:19;1427.25;;;999.90;;
22656;SDS011;11495;55.610;12.100;2022-07-05T02:07:47;1456.47;;;999.90;;
22656;SDS011;11495;55.610;12.100;2022-07-05T02:10:14;1492.07;;;999.90;;
22656;SDS011;11495;55.610;12.100;2022-07-05T02:12:40;1475.90;;;999.90;;
22656;SDS011;11495;55.610;12.100;2022-07-05T02:15:05;1478.70;;;999.90;;
22656;SDS011;11495;55.610;12.100;2022-07-05T02:17:31;1584.28;;;999.90;;
22656;SDS011;11495;55.610;12.100;2022-07-05T02:19:56;1538.87;;;999.90;;
22656;SDS011;11495;55.610;12.100;2022-07-05T02:22:22;1568.38;;;999.90;;
22656;SDS011;11495;55.610;12.100;2022-07-05T02:24:48;1519.43;;;999.90;;
22656;SDS011;11495;55.610;12.100;2022-07-05T02:27:13;1546.12;;;999.90;;
22656;SDS011;11495;55.610;12.100;2022-07-05T02:29:39;1491.47;;;999.90;;
22656;SDS011;11495;55.610;12.100;2022-07-05T02:32:04;1527.00;;;999.90;;
22656;SDS011;11495;55.610;12.100;2022-07-05T02:34:30;1566.43;;;999.90;;
22656;SDS011;11495;55.610;12.100;2022-07-05T02:36:55;1474.68;;;999.90;;
22656;SDS011;11495;55.610;12.100;2022-07-05T02:39:20;1476.82;;;999.90;;
22656;SDS011;11495;55.610;12.100;2022-07-05T02:41:46;1503.57;;;999.90;;
22656;SDS011;11495;55.610;12.100;2022-07-05T02:44:11;1551.50;;;999.90;;
22656;SDS011;11495;55.610;12.100;2022-07-05T02:46:37;1542.45;;;999.90;;
22656;SDS011;11495;55.610;12.100;2022-07-05T02:49:03;1539.40;;;999.90;;
22656;SDS011;11495;55.610;12.100;2022-07-05T02:51:28;1570.07;;;999.90;;
22656;SDS011;11495;55.610;12.100;2022-07-05T02:53:54;1574.47;;;999.90;;
22656;SDS011;11495;55.610;12.100;2022-07-05T02:56:19;1628.03;;;999.90;;
22656;SDS011;11495;55.610;12.100;2022-07-05T02:58:44;1693.45;;;999.90;;
22656;SDS011;11495;55.610;12.100;2022-07-05T03:01:10;1648.85;;;999.90;;
22656;SDS011;11495;55.610;12.100;2022-07-05T03:03:35;1609.85;;;999.90;;
22656;SDS011;11495;55.610;12.100;2022-07-05T03:06:01;1650.80;;;999.90;;
22656;SDS011;11495;55.610;12.100;2022-07-05T03:08:26;1629.95;;;999.90;;
22656;SDS011;11495;55.610;12.100;2022-07-05T03:10:51;1686.75;;;999.90;;
22656;SDS011;11495;55.610;12.100;2022-07-05T03:13:17;1684.70;;;999.90;;
22656;SDS011;11495;55.610;12.100;2022-07-05T03:15:42;1736.63;;;999.90;;
22656;SDS011;11495;55.610;12.100;2022-07-05T03:18:08;1774.07;;;999.90;;
22656;SDS011;11495;55.610;12.100;2022-07-05T03:20:33;1869.70;;;999.90;;
22656;SDS011;11495;55.610;12.100;2022-07-05T03:22:59;1710.22;;;999.90;;
22656;SDS011;11495;55.610;12.100;2022-07-05T03:25:24;1739.05;;;999.90;;
22656;SDS011;11495;55.610;12.100;2022-07-05T03:27:49;1805.43;;;999.90;;
22656;SDS011;11495;55.610;12.100;2022-07-05T03:30:15;1755.75;;;999.90;;
22656;SDS011;11495;55.610;12.100;2022-07-05T03:32:40;1855.45;;;999.90;;
22656;SDS011;11495;55.610;12.100;2022-07-05T03:35:06;1764.03;;;999.90;;
22656;SDS011;11495;55.610;12.100;2022-07-05T03:37:31;1783.00;;;999.90;;
22656;SDS011;11495;55.610;12.100;2022-07-05T03:39:57;1809.47;;;999.90;;
22656;SDS011;11495;55.610;12.100;2022-07-05T03:42:22;1919.70;;;999.90;;
22656;SDS011;11495;55.610;12.100;2022-07-05T03:44:48;1735.50;;;999.90;;
22656;SDS011;11495;55.610;12.100;2022-07-05T03:47:13;1805.93;;;999.90;;
22656;SDS011;11495;55.610;12.100;2022-07-05T03:49:39;1813.30;;;999.90;;
22656;SDS011;11495;55.610;12.100;2022-07-05T03:52:05;1841.65;;;999.90;;
22656;SDS011;11495;55.610;12.100;2022-07-05T03:54:30;1844.00;;;999.90;;
22656;SDS011;11495;55.610;12.100;2022-07-05T03:56:56;1822.15;;;999.90;;
22656;SDS011;11495;55.610;12.100;2022-07-05T03:59:21;1831.93;;;999.90;;
22656;SDS011;11495;55.610;12.100;2022-07-05T04:01:46;1853.13;;;999.90;;
22656;SDS011;11495;55.610;12.100;2022-07-05T04:04:12;1856.63;;;999.90;;
22656;SDS011;11495;55.610;12.100;2022-07-05T04:06:37;1958.43;;;999.90;;
22656;SDS011;11495;55.610;12.100;2022-07-05T04:09:02;1934.28;;;999.90;;
22656;SDS011;11495;55.610;12.100;2022-07-05T04:11:28;1903.15;;;999.90;;
22656;SDS011;11495;55.610;12.100;2022-07-05T04:13:53;1947.97;;;999.90;;
22656;SDS011;11495;55.610;12.100;2022-07-05T04:16:19;1933.25;;;999.90;;
22656;SDS011;11495;55.610;12.100;2022-07-05T04:18:45;1845.93;;;999.90;;
22656;SDS011;11495;55.610;12.100;2022-07-05T04:21:10;1929.30;;;999.90;;
22656;SDS011;11495;55.610;12.100;2022-07-05T04:23:36;1838.80;;;999.90;;
22656;SDS011;11495;55.610;12.100;2022-07-05T04:26:01;1886.70;;;999.90;;
22656;SDS011;11495;55.610;12.100;2022-07-05T04:28:27;1921.95;;;999.90;;
22656;SDS011;11495;55.610;12.100;2022-07-05T04:30:54;1843.07;;;999.90;;
22656;SDS011;11495;55.610;12.100;2022-07-05T04:33:20;1916.65;;;999.90;;
22656;SDS011;11495;55.610;12.100;2022-07-05T04:35:46;1992.78;;;999.90;;
22656;SDS011;11495;55.610;12.100;2022-07-05T04:38:11;1914.45;;;999.90;;
22656;SDS011;11495;55.610;12.100;2022-07-05T04:40:37;1910.10;;;999.90;;
22656;SDS011;11495;55.610;12.100;2022-07-05T04:43:02;1915.78;;;999.90;;
22656;SDS011;11495;55.610;12.100;2022-07-05T04:45:28;1991.82;;;999.90;;
22656;SDS011;11495;55.610;12.100;2022-07-05T04:47:53;1967.75;;;999.90;;
22656;SDS011;11495;55.610;12.100;2022-07-05T04:50:19;1847.28;;;999.90;;
22656;SDS011;11495;55.610;12.100;2022-07-05T04:52:44;1736.75;;;999.90;;
22656;SDS011;11495;55.610;12.100;2022-07-05T04:55:09;1815.65;;;999.90;;
22656;SDS011;11495;55.610;12.100;2022-07-05T04:57:38;1714.50;;;999.90;;
22656;SDS011;11495;55.610;12.100;2022-07-05T05:00:05;1716.13;;;999.90;;
22656;SDS011;11495;55.610;12.100;2022-07-05T05:02:32;1715.43;;;999.90;;
22656;SDS011;11495;55.610;12.100;2022-07-05T05:04:58;1752.78;;;999.90;;
22656;SDS011;11495;55.610;12.100;2022-07-05T05:07:23;1768.38;;;999.90;;
22656;SDS011;11495;55.610;12.100;2022-07-05T05:09:49;1914.60;;;999.90;;
22656;SDS011;11495;55.610;12.100;2022-07-05T05:12:14;1856.03;;;999.90;;
22656;SDS011;11495;55.610;12.100;2022-07-05T05:14:39;1982.28;;;999.90;;
22656;SDS011;11495;55.610;12.100;2022-07-05T05:17:05;1999.90;;;999.90;;
22656;SDS011;11495;55.610;12.100;2022-07-05T05:19:30;1999.90;;;999.90;;
22656;SDS011;11495;55.610;12.100;2022-07-05T05:21:55;1999.90;;;999.90;;
22656;SDS011;11495;55.610;12.100;2022-07-05T05:24:21;1999.45;;;999.90;;
22656;SDS011;11495;55.610;12.100;2022-07-05T05:26:46;1999.90;;;999.90;;
22656;SDS011;11495;55.610;12.100;2022-07-05T05:29:12;1999.90;;;999.90;;
22656;SDS011;11495;55.610;12.100;2022-07-05T05:31:38;1999.90;;;999.90;;
22656;SDS011;11495;55.610;12.100;2022-07-05T05:34:16;1999.90;;;999.90;;
22656;SDS011;11495;55.610;12.100;2022-07-05T05:36:42;1999.90;;;999.90;;
22656;SDS011;11495;55.610;12.100;2022-07-05T05:39:18;1999.90;;;999.90;;
22656;SDS011;11495;55.610;12.100;2022-07-05T05:41:43;1999.90;;;999.90;;
22656;SDS011;11495;55.610;12.100;2022-07-05T05:44:08;1999.90;;;999.90;;
22656;SDS011;11495;55.610;12.100;2022-07-05T05:46:35;1794.30;;;999.90;;
22656;SDS011;11495;55.610;12.100;2022-07-05T05:49:07;1999.90;;;999.90;;
22656;SDS011;11495;55.610;12.100;2022-07-05T05:51:34;1999.90;;;999.90;;
22656;SDS011;11495;55.610;12.100;2022-07-05T05:54:05;1980.13;;;999.90;;
22656;SDS011;11495;55.610;12.100;2022-07-05T05:56:30;1999.90;;;999.90;;
22656;SDS011;11495;55.610;12.100;2022-07-05T05:58:56;1962.18;;;999.90;;
22656;SDS011;11495;55.610;12.100;2022-07-05T06:01:21;1720.68;;;999.90;;
22656;SDS011;11495;55.610;12.100;2022-07-05T06:03:46;1999.90;;;999.90;;
22656;SDS011;11495;55.610;12.100;2022-07-05T06:06:12;1999.90;;;999.90;;
22656;SDS011;11495;55.610;12.100;2022-07-05T06:08:37;1799.40;;;999.90;;
22656;SDS011;11495;55.610;12.100;2022-07-05T06:11:02;1999.90;;;999.90;;
22656;SDS011;11495;55.610;12.100;2022-07-05T06:13:31;1947.25;;;999.90;;
22656;SDS011;11495;55.610;12.100;2022-07-05T06:15:57;1999.90;;;999.90;;
22656;SDS011;11495;55.610;12.100;2022-07-05T06:18:22;1922.30;;;999.90;;
22656;SDS011;11495;55.610;12.100;2022-07-05T06:20:47;1999.90;;;999.90;;
22656;SDS011;11495;55.610;12.100;2022-07-05T06:23:13;1999.90;;;999.90;;
22656;SDS011;11495;55.610;12.100;2022-07-05T06:25:38;1794.20;;;999.90;;
22656;SDS011;11495;55.610;12.100;2022-07-05T06:28:05;1999.90;;;999.90;;
22656;SDS011;11495;55.610;12.100;2022-07-05T06:30:33;1871.20;;;999.90;;
22656;SDS011;11495;55.610;12.100;2022-07-05T06:33:00;1968.93;;;998.70;;
22656;SDS011;11495;55.610;12.100;2022-07-05T06:35:26;1999.90;;;937.80;;
22656;SDS011;11495;55.610;12.100;2022-07-05T06:37:53;1271.43;;;879.22;;
22656;SDS011;11495;55.610;12.100;2022-07-05T06:40:30;1679.15;;;930.60;;
22656;SDS011;11495;55.610;12.100;2022-07-05T06:43:03;1102.20;;;796.08;;
22656;SDS011;11495;55.610;12.100;2022-07-05T06:45:30;1807.40;;;876.90;;
22656;SDS011;11495;55.610;12.100;2022-07-05T06:48:02;1642.07;;;828.12;;
22656;SDS011;11495;55.610;12.100;2022-07-05T06:50:32;1104.90;;;724.55;;
22656;SDS011;11495;55.610;12.100;2022-07-05T06:53:00;1937.00;;;822.67;;
22656;SDS011;11495;55.610;12.100;2022-07-05T06:55:26;682.90;;;577.78;;
22656;SDS011;11495;55.610;12.100;2022-07-05T06:58:26;1674.88;;;766.42;;
22656;SDS011;11495;55.610;12.100;2022-07-05T07:00:44;821.75;;;574.00;;
22656;SDS011;11495;55.610;12.100;2022-07-05T07:03:10;704.03;;;605.00;;
22656;SDS011;11495;55.610;12.100;2022-07-05T07:05:35;1199.03;;;706.03;;
22656;SDS011;11495;55.610;12.100;2022-07-05T07:08:00;794.22;;;606.70;;
22656;SDS011;11495;55.610;12.100;2022-07-05T07:10:44;1890.88;;;777.13;;
22656;SDS011;11495;55.610;12.100;2022-07-05T07:13:10;965.78;;;703.45;;
22656;SDS011;11495;55.610;12.100;2022-07-05T07:15:36;1674.07;;;813.87;;
22656;SDS011;11495;55.610;12.100;2022-07-05T07:18:03;1198.07;;;797.58;;
22656;SDS011;11495;55.610;12.100;2022-07-05T07:20:29;863.80;;;712.25;;
22656;SDS011;11495;55.610;12.100;2022-07-05T07:22:54;955.10;;;705.92;;
22656;SDS011;11495;55.610;12.100;2022-07-05T07:25:20;1058.00;;;768.80;;
22656;SDS011;11495;55.610;12.100;2022-07-05T07:27:48;689.33;;;614.17;;
22656;SDS011;11495;55.610;12.100;2022-07-05T07:30:16;986.65;;;809.10;;
22656;SDS011;11495;55.610;12.100;2022-07-05T07:32:42;1275.75;;;874.35;;
22656;SDS011;11495;55.610;12.100;2022-07-05T07:35:10;831.87;;;738.03;;
22656;SDS011;11495;55.610;12.100;2022-07-05T07:37:36;1436.65;;;861.10;;
22656;SDS011;11495;55.610;12.100;2022-07-05T07:40:02;1452.32;;;832.62;;
22656;SDS011;11495;55.610;12.100;2022-07-05T07:42:28;940.12;;;786.20;;
22656;SDS011;11495;55.610;12.100;2022-07-05T07:44:54;889.92;;;718.50;;
22656;SDS011;11495;55.610;12.100;2022-07-05T07:47:19;952.33;;;760.33;;
22656;SDS011;11495;55.610;12.100;2022-07-05T07:49:44;1439.15;;;783.87;;
22656;SDS011;11495;55.610;12.100;2022-07-05T07:52:10;1540.43;;;766.45;;
22656;SDS011;11495;55.610;12.100;2022-07-05T07:54:35;1368.60;;;765.03;;
22656;SDS011;11495;55.610;12.100;2022-07-05T07:57:01;1106.32;;;678.03;;
22656;SDS011;11495;55.610;12.100;2022-07-05T07:59:29;1059.35;;;690.95;;
22656;SDS011;11495;55.610;12.100;2022-07-05T08:01:55;794.53;;;661.72;;
22656;SDS011;11495;55.610;12.100;2022-07-05T08:04:20;1262.85;;;731.87;;
22656;SDS011;11495;55.610;12.100;2022-07-05T08:06:46;1111.22;;;703.85;;
22656;SDS011;11495;55.610;12.100;2022-07-05T08:09:12;831.80;;;645.80;;
22656;SDS011;11495;55.610;12.100;2022-07-05T08:11:38;1550.20;;;881.08;;
22656;SDS011;11495;55.610;12.100;2022-07-05T08:14:03;855.83;;;687.40;;
22656;SDS011;11495;55.610;12.100;2022-07-05T08:16:29;964.87;;;694.42;;
22656;SDS011;11495;55.610;12.100;2022-07-05T08:18:54;1750.50;;;729.90;;
22656;SDS011;11495;55.610;12.100;2022-07-05T08:24:04;978.88;;;575.17;;
22656;SDS011;11495;55.610;12.100;2022-07-05T08:26:31;767.28;;;581.20;;
22656;SDS011;11495;55.610;12.100;2022-07-05T08:28:57;1028.13;;;719.67;;
22656;SDS011;11495;55.610;12.100;2022-07-05T08:31:24;674.30;;;606.15;;
22656;SDS011;11495;55.610;12.100;2022-07-05T08:33:50;754.03;;;670.88;;
22656;SDS011;11495;55.610;12.100;2022-07-05T08:36:16;1366.63;;;828.20;;
22656;SDS011;11495;55.610;12.100;2022-07-05T08:38:41;1219.47;;;717.95;;
22656;SDS011;11495;55.610;12.100;2022-07-05T08:41:07;725.60;;;646.80;;
22656;SDS011;11495;55.610;12.100;2022-07-05T08:43:35;803.75;;;652.30;;
22656;SDS011;11495;55.610;12.100;2022-07-05T08:46:04;1357.70;;;810.95;;
22656;SDS011;11495;55.610;12.100;2022-07-05T08:48:33;1383.13;;;775.58;;
22656;SDS011;11495;55.610;12.100;2022-07-05T08:51:07;1082.28;;;738.05;;
22656;SDS011;11495;55.610;12.100;2022-07-05T08:53:39;835.60;;;712.50;;
22656;SDS011;11495;55.610;12.100;2022-07-05T08:56:06;1215.00;;;809.42;;
22656;SDS011;11495;55.610;12.100;2022-07-05T08:58:33;993.25;;;778.40;;
22656;SDS011;11495;55.610;12.100;2022-07-05T09:00:58;764.10;;;681.03;;
22656;SDS011;11495;55.610;12.100;2022-07-05T09:03:24;737.30;;;653.83;;
22656;SDS011;11495;55.610;12.100;2022-07-05T09:05:58;816.90;;;692.95;;
22656;SDS011;11495;55.610;12.100;2022-07-05T09:08:26;1319.63;;;750.55;;
22656;SDS011;11495;55.610;12.100;2022-07-05T09:10:52;809.03;;;661.55;;
22656;SDS011;11495;55.610;12.100;2022-07-05T09:13:18;1119.88;;;730.87;;
22656;SDS011;11495;55.610;12.100;2022-07-05T09:15:43;1226.55;;;785.05;;
22656;SDS011;11495;55.610;12.100;2022-07-05T09:18:12;796.67;;;699.65;;
22656;SDS011;11495;55.610;12.100;2022-07-05T09:20:37;1979.60;;;835.60;;
22656;SDS011;11495;55.610;12.100;2022-07-05T09:23:02;869.55;;;726.47;;
22656;SDS011;11495;55.610;12.100;2022-07-05T09:25:29;1752.25;;;844.08;;
22656;SDS011;11495;55.610;12.100;2022-07-05T09:35:28;681.50;;;612.00;;
22656;SDS011;11495;55.610;12.100;2022-07-05T09:37:54;1206.90;;;824.35;;
22656;SDS011;11495;55.610;12.100;2022-07-05T09:40:20;941.22;;;696.28;;
22656;SDS011;11495;55.610;12.100;2022-07-05T09:42:45;950.53;;;687.75;;
22656;SDS011;11495;55.610;12.100;2022-07-05T09:45:11;1999.90;;;847.12;;
22656;SDS011;11495;55.610;12.100;2022-07-05T09:47:37;1982.90;;;823.78;;
22656;SDS011;11495;55.610;12.100;2022-07-05T09:50:02;1999.90;;;875.08;;
22656;SDS011;11495;55.610;12.100;2022-07-05T09:52:33;1685.50;;;850.05;;
22656;SDS011;11495;55.610;12.100;2022-07-05T09:57:28;1999.22;;;915.45;;
22656;SDS011;11495;55.610;12.100;2022-07-05T09:59:58;1658.43;;;857.47;;
22656;SDS011;11495;55.610;12.100;2022-07-05T10:02:36;1368.45;;;804.80;;
22656;SDS011;11495;55.610;12.100;2022-07-05T10:05:16;1587.50;;;891.95;;
22656;SDS011;11495;55.610;12.100;2022-07-05T10:07:44;1082.30;;;769.30;;
22656;SDS011;11495;55.610;12.100;2022-07-05T10:10:14;1999.90;;;900.75;;
22656;SDS011;11495;55.610;12.100;2022-07-05T10:12:41;1914.57;;;948.85;;
22656;SDS011;11495;55.610;12.100;2022-07-05T10:15:10;1212.22;;;724.15;;
22656;SDS011;11495;55.610;12.100;2022-07-05T10:17:39;996.67;;;666.28;;
22656;SDS011;11495;55.610;12.100;2022-07-05T10:20:28;1357.90;;;704.08;;
22656;SDS011;11495;55.610;12.100;2022-07-05T10:23:06;593.92;;;472.70;;
22656;SDS011;11495;55.610;12.100;2022-07-05T10:25:37;1135.47;;;720.28;;
22656;SDS011;11495;55.610;12.100;2022-07-05T10:28:05;1704.32;;;731.15;;
22656;SDS011;11495;55.610;12.100;2022-07-05T10:30:31;1157.50;;;699.25;;
22656;SDS011;11495;55.610;12.100;2022-07-05T10:32:58;514.78;;;461.27;;
22656;SDS011;11495;55.610;12.100;2022-07-05T10:35:26;1169.13;;;590.30;;
22656;SDS011;11495;55.610;12.100;2022-07-05T10:37:52;1775.72;;;759.67;;
22656;SDS011;11495;55.610;12.100;2022-07-05T10:40:18;637.83;;;475.55;;
22656;SDS011;11495;55.610;12.100;2022-07-05T10:42:45;938.63;;;513.28;;
22656;SDS011;11495;55.610;12.100;2022-07-05T10:45:24;1376.15;;;662.25;;
22656;SDS011;11495;55.610;12.100;2022-07-05T10:50:47;1532.75;;;680.35;;
22656;SDS011;11495;55.610;12.100;2022-07-05T10:55:56;942.00;;;521.28;;
22656;SDS011;11495;55.610;12.100;2022-07-05T10:58:40;631.15;;;513.95;;
22656;SDS011;11495;55.610;12.100;2022-07-05T11:03:40;1306.13;;;594.33;;
22656;SDS011;11495;55.610;12.100;2022-07-05T11:06:07;829.97;;;552.13;;
22656;SDS011;11495;55.610;12.100;2022-07-05T11:11:33;1133.82;;;565.58;;
22656;SDS011;11495;55.610;12.100;2022-07-05T11:14:01;699.72;;;446.73;;
22656;SDS011;11495;55.610;12.100;2022-07-05T11:16:34;1378.95;;;616.40;;
22656;SDS011;11495;55.610;12.100;2022-07-05T11:24:26;543.28;;;483.10;;
22656;SDS011;11495;55.610;12.100;2022-07-05T11:26:58;843.17;;;490.33;;
22656;SDS011;11495;55.610;12.100;2022-07-05T11:29:44;517.53;;;401.08;;
22656;SDS011;11495;55.610;12.100;2022-07-05T11:32:35;910.17;;;572.63;;
22656;SDS011;11495;55.610;12.100;2022-07-05T11:35:11;982.40;;;582.10;;
22656;SDS011;11495;55.610;12.100;2022-07-05T11:38:03;1837.25;;;696.95;;
22656;SDS011;11495;55.610;12.100;2022-07-05T11:40:28;506.23;;;398.40;;
22656;SDS011;11495;55.610;12.100;2022-07-05T11:42:57;539.00;;;373.33;;
22656;SDS011;11495;55.610;12.100;2022-07-05T11:45:23;489.75;;;368.15;;
22656;SDS011;11495;55.610;12.100;2022-07-05T11:47:50;320.10;;;287.83;;
22656;SDS011;11495;55.610;12.100;2022-07-05T11:50:24;1121.80;;;540.15;;
22656;SDS011;11495;55.610;12.100;2022-07-05T11:52:53;894.60;;;477.52;;
22656;SDS011;11495;55.610;12.100;2022-07-05T11:55:18;371.77;;;336.35;;
22656;SDS011;11495;55.610;12.100;2022-07-05T11:57:48;448.50;;;359.33;;
22656;SDS011;11495;55.610;12.100;2022-07-05T12:00:24;652.70;;;453.15;;
22656;SDS011;11495;55.610;12.100;2022-07-05T12:02:53;865.12;;;546.75;;
22656;SDS011;11495;55.610;12.100;2022-07-05T12:05:19;1294.68;;;563.05;;
22656;SDS011;11495;55.610;12.100;2022-07-05T12:07:48;1343.53;;;535.70;;
22656;SDS011;11495;55.610;12.100;2022-07-05T12:10:15;990.47;;;517.40;;
22656;SDS011;11495;55.610;12.100;2022-07-05T12:13:05;669.30;;;437.40;;
22656;SDS011;11495;55.610;12.100;2022-07-05T12:15:31;457.73;;;369.23;;
22656;SDS011;11495;55.610;12.100;2022-07-05T12:17:57;1268.80;;;572.03;;
22656;SDS011;11495;55.610;12.100;2022-07-05T12:20:28;559.63;;;360.73;;
22656;SDS011;11495;55.610;12.100;2022-07-05T12:22:54;269.00;;;245.75;;
22656;SDS011;11495;55.610;12.100;2022-07-05T12:25:20;341.35;;;276.90;;
22656;SDS011;11495;55.610;12.100;2022-07-05T12:27:49;467.30;;;375.15;;
22656;SDS011;11495;55.610;12.100;2022-07-05T12:30:16;575.78;;;431.73;;
22656;SDS011;11495;55.610;12.100;2022-07-05T12:32:55;424.70;;;382.25;;
22656;SDS011;11495;55.610;12.100;2022-07-05T12:35:28;681.45;;;520.62;;
22656;SDS011;11495;55.610;12.100;2022-07-05T12:38:05;390.98;;;355.20;;
22656;SDS011;11495;55.610;12.100;2022-07-05T12:40:32;562.03;;;448.02;;
22656;SDS011;11495;55.610;12.100;2022-07-05T12:43:02;724.75;;;458.70;;
22656;SDS011;11495;55.610;12.100;2022-07-05T12:46:08;573.37;;;430.50;;
22656;SDS011;11495;55.610;12.100;2022-07-05T12:48:37;1282.43;;;614.65;;
22656;SDS011;11495;55.610;12.100;2022-07-05T12:51:04;657.47;;;436.75;;
22656;SDS011;11495;55.610;12.100;2022-07-05T12:53:31;697.47;;;460.58;;
22656;SDS011;11495;55.610;12.100;2022-07-05T12:56:14;1058.82;;;503.45;;
22656;SDS011;11495;55.610;12.100;2022-07-05T12:59:00;615.45;;;364.80;;
22656;SDS011;11495;55.610;12.100;2022-07-05T13:01:33;562.83;;;378.70;;
22656;SDS011;11495;55.610;12.100;2022-07-05T13:14:50;205.87;;;187.68;;
22656;SDS011;11495;55.610;12.100;2022-07-05T13:17:17;461.55;;;360.60;;
22656;SDS011;11495;55.610;12.100;2022-07-05T13:19:45;517.03;;;330.40;;
22656;SDS011;11495;55.610;12.100;2022-07-05T13:22:12;377.52;;;321.15;;
22656;SDS011;11495;55.610;12.100;2022-07-05T13:24:38;416.83;;;341.08;;
22656;SDS011;11495;55.610;12.100;2022-07-05T13:27:04;473.25;;;351.58;;
22656;SDS011;11495;55.610;12.100;2022-07-05T13:29:30;413.65;;;363.73;;
22656;SDS011;11495;55.610;12.100;2022-07-05T13:31:56;570.55;;;347.10;;
22656;SDS011;11495;55.610;12.100;2022-07-05T13:34:22;1226.15;;;520.33;;
22656;SDS011;11495;55.610;12.100;2022-07-05T13:36:49;862.05;;;490.55;;
22656;SDS011;11495;55.610;12.100;2022-07-05T13:39:18;1135.45;;;566.58;;
22656;SDS011;11495;55.610;12.100;2022-07-05T13:41:44;635.40;;;403.30;;
22656;SDS011;11495;55.610;12.100;2022-07-05T13:44:11;1142.28;;;539.17;;
22656;SDS011;11495;55.610;12.100;2022-07-05T13:46:36;866.13;;;506.63;;
22656;SDS011;11495;55.610;12.100;2022-07-05T13:49:02;1395.20;;;567.92;;
22656;SDS011;11495;55.610;12.100;2022-07-05T13:51:27;1392.00;;;566.17;;
22656;SDS011;11495;55.610;12.100;2022-07-05T13:53:53;626.45;;;392.58;;
22656;SDS011;11495;55.610;12.100;2022-07-05T13:56:18;392.52;;;339.10;;
22656;SDS011;11495;55.610;12.100;2022-07-05T13:58:44;282.50;;;251.50;;
22656;SDS011;11495;55.610;12.100;2022-07-05T14:01:09;716.85;;;416.12;;
22656;SDS011;11495;55.610;12.100;2022-07-05T14:03:35;240.77;;;217.40;;
22656;SDS011;11495;55.610;12.100;2022-07-05T14:06:00;320.70;;;288.33;;
22656;SDS011;11495;55.610;12.100;2022-07-05T14:08:25;969.58;;;570.55;;
22656;SDS011;11495;55.610;12.100;2022-07-05T14:10:52;364.83;;;329.25;;
22656;SDS011;11495;55.610;12.100;2022-07-05T14:13:21;479.10;;;428.00;;
22656;SDS011;11495;55.610;12.100;2022-07-05T14:15:48;686.42;;;565.33;;
22656;SDS011;11495;55.610;12.100;2022-07-05T14:18:14;386.17;;;346.60;;